createdAt,value
2023-09-18T00:00:56.369Z,6.67
2023-09-18T00:03:26.073Z,6.90
2023-09-18T00:05:54.661Z,5.43
2023-09-18T00:08:22.470Z,6.43
2023-09-18T00:10:55.903Z,6.37
2023-09-18T00:13:25.065Z,6.80
2023-09-18T00:15:57.212Z,6.90
2023-09-18T00:18:26.076Z,6.27
2023-09-18T00:20:53.784Z,6.00
2023-09-18T00:23:21.540Z,6.60
2023-09-18T00:25:49.305Z,6.37
2023-09-18T00:28:16.757Z,6.50
2023-09-18T00:30:50.894Z,6.33
2023-09-18T00:33:21.006Z,6.30
2023-09-18T00:35:53.280Z,7.07
2023-09-18T00:38:23.714Z,6.10
2023-09-18T00:40:51.287Z,6.10
2023-09-18T00:43:19.509Z,6.00
2023-09-18T00:45:49.652Z,6.20
2023-09-18T00:48:19.120Z,5.87
2023-09-18T00:50:48.079Z,6.17
2023-09-18T00:53:23.516Z,6.27
2023-09-18T00:55:56.702Z,6.80
2023-09-18T00:58:25.394Z,6.67
2023-09-18T01:00:53.012Z,6.47
2023-09-18T01:03:24.686Z,6.50
2023-09-18T01:05:52.355Z,6.20
2023-09-18T01:08:22.448Z,6.10
2023-09-18T01:11:11.719Z,6.27
2023-09-18T01:14:15.732Z,6.00
2023-09-18T01:16:58.462Z,6.60
2023-09-18T01:19:41.725Z,6.77
2023-09-18T01:22:11.148Z,6.30
2023-09-18T01:24:41.066Z,6.83
2023-09-18T01:27:18.350Z,6.43
2023-09-18T01:29:47.634Z,6.93
2023-09-18T01:32:16.124Z,6.53
2023-09-18T01:34:56.242Z,6.43
2023-09-18T01:37:31.689Z,6.53
2023-09-18T01:40:00.969Z,5.40
2023-09-18T01:42:29.476Z,5.63
2023-09-18T01:44:57.131Z,5.97
2023-09-18T01:47:24.850Z,6.30
2023-09-18T01:49:52.604Z,6.27
2023-09-18T01:52:20.385Z,6.33
2023-09-18T01:54:48.335Z,6.03
2023-09-18T01:57:15.741Z,6.17
2023-09-18T01:59:43.099Z,5.70
2023-09-18T02:02:16.660Z,6.63
2023-09-18T02:05:05.630Z,6.00
2023-09-18T02:07:34.197Z,5.70
2023-09-18T02:10:02.323Z,6.17
2023-09-18T02:12:29.915Z,6.10
2023-09-18T02:14:59.836Z,6.00
2023-09-18T02:17:27.482Z,5.93
2023-09-18T02:19:54.857Z,5.83
2023-09-18T02:22:22.294Z,5.77
2023-09-18T02:24:49.987Z,6.47
2023-09-18T02:27:20.243Z,5.70
2023-09-18T02:29:47.498Z,5.97
2023-09-18T02:32:14.985Z,5.60
2023-09-18T02:34:42.585Z,5.97
2023-09-18T02:37:10.111Z,6.30
2023-09-18T02:39:37.626Z,5.70
2023-09-18T02:42:05.354Z,5.70
2023-09-18T02:44:33.261Z,6.30
2023-09-18T02:47:00.699Z,5.80
2023-09-18T02:49:28.435Z,5.67
2023-09-18T02:51:56.040Z,5.73
2023-09-18T02:54:23.537Z,5.90
2023-09-18T02:56:50.917Z,6.07
2023-09-18T03:12:44.839Z,6.20
2023-09-18T03:15:12.940Z,5.60
2023-09-18T03:17:43.207Z,5.40
2023-09-18T03:20:11.367Z,5.83
2023-09-18T03:22:39.029Z,5.47
2023-09-18T03:25:07.225Z,5.83
2023-09-18T03:27:34.680Z,5.70
2023-09-18T03:30:02.375Z,5.40
2023-09-18T03:32:33.065Z,4.47
2023-09-18T03:35:02.048Z,4.83
2023-09-18T03:37:30.015Z,5.50
2023-09-18T03:39:57.610Z,4.93
2023-09-18T03:42:24.957Z,5.23
2023-09-18T03:44:52.241Z,5.20
2023-09-18T03:47:20.245Z,5.10
2023-09-18T03:49:49.799Z,4.57
2023-09-18T03:52:17.422Z,4.77
2023-09-18T03:54:44.880Z,4.63
2023-09-18T03:57:12.441Z,4.47
2023-09-18T03:59:42.671Z,5.10
2023-09-18T04:02:10.366Z,4.70
2023-09-18T04:04:37.810Z,4.63
2023-09-18T04:07:10.157Z,5.20
2023-09-18T04:09:39.161Z,4.83
2023-09-18T04:12:07.802Z,4.80
2023-09-18T04:14:35.389Z,4.67
2023-09-18T04:17:03.238Z,4.93
2023-09-18T04:19:31.040Z,4.87
2023-09-18T04:21:59.743Z,5.17
2023-09-18T04:24:27.737Z,5.13
2023-09-18T04:26:55.356Z,4.80
2023-09-18T04:29:22.820Z,4.90
2023-09-18T04:31:52.549Z,5.23
2023-09-18T04:34:20.434Z,4.50
2023-09-18T04:36:48.883Z,5.10
2023-09-18T04:39:16.458Z,5.00
2023-09-18T04:41:44.197Z,4.80
2023-09-18T04:44:14.336Z,5.00
2023-09-18T04:46:44.215Z,4.70
2023-09-18T04:49:12.602Z,4.93
2023-09-18T04:51:40.598Z,5.20
2023-09-18T04:54:08.052Z,5.60
2023-09-18T04:56:35.648Z,5.00
2023-09-18T04:59:03.915Z,5.40
2023-09-18T05:01:31.543Z,5.10
2023-09-18T05:03:59.558Z,5.10
2023-09-18T05:06:27.271Z,5.40
2023-09-18T05:08:55.696Z,5.40
2023-09-18T05:11:26.056Z,5.20
2023-09-18T05:13:54.455Z,5.40
2023-09-18T05:16:21.912Z,5.30
2023-09-18T05:18:49.318Z,5.07
2023-09-18T05:21:17.852Z,5.60
2023-09-18T05:23:45.765Z,4.60
2023-09-18T05:26:14.091Z,4.90
2023-09-18T05:28:41.422Z,4.47
2023-09-18T05:31:09.029Z,4.27
2023-09-18T05:33:36.338Z,3.90
2023-09-18T05:36:04.559Z,3.60
2023-09-18T05:38:31.997Z,4.13
2023-09-18T05:40:59.383Z,4.50
2023-09-18T05:43:26.840Z,4.47
2023-09-18T05:45:54.150Z,4.07
2023-09-18T05:48:21.709Z,4.23
2023-09-18T05:50:49.930Z,4.37
2023-09-18T05:53:19.988Z,4.10
2023-09-18T05:55:48.657Z,4.23
2023-09-18T05:58:16.261Z,4.50
2023-09-18T06:00:43.977Z,3.70
2023-09-18T06:03:13.920Z,3.93
2023-09-18T06:05:41.416Z,3.90
2023-09-18T06:08:09.345Z,3.70
2023-09-18T06:10:36.677Z,3.33
2023-09-18T06:13:07.354Z,3.30
2023-09-18T06:15:34.950Z,3.10
2023-09-18T06:18:03.171Z,3.20
2023-09-18T06:20:31.293Z,3.27
2023-09-18T06:22:58.963Z,3.13
2023-09-18T06:25:26.427Z,2.60
2023-09-18T06:27:53.808Z,2.60
2023-09-18T06:30:23.791Z,2.47
2023-09-18T06:32:51.447Z,2.40
2023-09-18T06:35:19.369Z,2.40
2023-09-18T06:37:46.841Z,2.20
2023-09-18T06:40:15.072Z,2.50
2023-09-18T06:42:42.415Z,2.03
2023-09-18T06:45:10.521Z,2.20
2023-09-18T06:47:37.755Z,2.03
2023-09-18T06:50:06.622Z,2.10
2023-09-18T06:52:34.035Z,2.07
2023-09-18T06:55:01.572Z,1.90
2023-09-18T06:57:29.132Z,2.10
2023-09-18T06:59:56.637Z,2.10
2023-09-18T07:02:24.249Z,2.20
2023-09-18T07:04:52.504Z,2.20
2023-09-18T07:07:26.724Z,2.10
2023-09-18T07:12:26.090Z,1.80
2023-09-18T07:14:53.432Z,1.97
2023-09-18T07:17:23.218Z,2.20
2023-09-18T07:19:50.971Z,1.60
2023-09-18T07:22:18.823Z,1.90
2023-09-18T07:24:47.414Z,1.93
2023-09-18T07:27:15.159Z,2.10
2023-09-18T07:29:44.515Z,1.90
2023-09-18T07:32:13.787Z,1.97
2023-09-18T07:34:42.468Z,1.87
2023-09-18T07:37:30.392Z,1.70
2023-09-18T07:39:58.338Z,1.60
2023-09-18T07:42:29.575Z,1.90
2023-09-18T07:44:59.321Z,2.10
2023-09-18T07:47:27.514Z,1.80
2023-09-18T07:49:56.243Z,1.73
2023-09-18T07:52:24.140Z,1.77
2023-09-18T07:54:51.965Z,2.10
2023-09-18T07:57:20.680Z,2.00
2023-09-18T07:59:49.441Z,1.70
2023-09-18T08:02:36.831Z,1.87
2023-09-18T08:05:06.705Z,1.53
2023-09-18T08:07:34.236Z,1.60
2023-09-18T08:10:02.215Z,2.00
2023-09-18T08:12:29.744Z,1.73
2023-09-18T08:15:00.737Z,1.80
2023-09-18T08:17:28.674Z,1.70
2023-09-18T08:19:57.077Z,1.60
2023-09-18T08:22:24.942Z,1.90
2023-09-18T08:24:54.342Z,1.83
2023-09-18T08:27:31.304Z,1.77
2023-09-18T08:29:58.759Z,1.90
2023-09-18T08:32:31.922Z,1.73
2023-09-18T08:34:59.978Z,1.70
2023-09-18T08:37:27.789Z,1.70
2023-09-18T08:39:56.173Z,1.90
2023-09-18T08:42:26.288Z,1.90
2023-09-18T08:44:55.631Z,1.90
2023-09-18T08:47:27.263Z,1.60
2023-09-18T08:49:58.262Z,1.70
2023-09-18T08:52:27.559Z,1.80
2023-09-18T08:54:57.706Z,1.63
2023-09-18T08:57:26.211Z,1.80
2023-09-18T08:59:57.160Z,1.73
2023-09-18T09:02:25.566Z,1.63
2023-09-18T09:04:53.795Z,1.97
2023-09-18T09:07:33.131Z,1.63
2023-09-18T09:10:04.589Z,1.80
2023-09-18T09:12:56.434Z,1.80
2023-09-18T09:15:51.818Z,1.57
2023-09-18T09:18:58.140Z,1.50
2023-09-18T09:21:55.489Z,2.00
2023-09-18T09:25:02.089Z,1.70
2023-09-18T09:27:49.233Z,1.70
2023-09-18T09:30:30.238Z,2.13
2023-09-18T09:33:03.995Z,1.80
2023-09-18T09:35:37.653Z,1.83
2023-09-18T09:38:17.449Z,2.13
2023-09-18T09:40:46.852Z,1.90
2023-09-18T09:43:16.574Z,1.90
2023-09-18T09:45:48.404Z,1.90
2023-09-18T09:48:38.761Z,2.07
2023-09-18T09:51:10.119Z,1.93
2023-09-18T09:53:52.764Z,2.23
2023-09-18T09:56:21.060Z,2.33
2023-09-18T09:59:05.540Z,2.17
2023-09-18T10:01:39.715Z,2.07
2023-09-18T10:04:15.401Z,2.23
2023-09-18T10:06:47.662Z,2.40
2023-09-18T10:09:17.639Z,2.40
2023-09-18T10:11:57.224Z,2.10
2023-09-18T10:14:55.247Z,2.10
2023-09-18T10:17:31.678Z,1.90
2023-09-18T10:20:21.088Z,2.30
2023-09-18T10:22:55.325Z,2.10
2023-09-18T10:25:29.345Z,2.00
2023-09-18T10:28:03.798Z,2.23
2023-09-18T10:30:35.967Z,2.03
2023-09-18T10:33:04.279Z,2.10
2023-09-18T10:35:45.287Z,2.10
2023-09-18T10:38:22.839Z,1.90
2023-09-18T10:40:55.820Z,2.10
2023-09-18T10:43:23.411Z,2.17
2023-09-18T10:45:53.193Z,2.30
2023-09-18T10:48:29.198Z,2.00
2023-09-18T10:51:06.055Z,2.20
2023-09-18T10:53:34.695Z,1.70
2023-09-18T10:56:09.096Z,2.10
2023-09-18T10:58:40.263Z,2.10
2023-09-18T11:01:17.567Z,2.20
2023-09-18T11:03:47.037Z,2.00
2023-09-18T11:06:23.159Z,2.07
2023-09-18T11:09:05.797Z,2.10
2023-09-18T11:11:36.869Z,2.10
2023-09-18T11:14:16.886Z,2.30
2023-09-18T11:16:45.028Z,2.10
2023-09-18T11:19:21.180Z,2.17
2023-09-18T11:21:49.473Z,2.17
2023-09-18T11:24:30.801Z,2.23
2023-09-18T11:27:03.235Z,2.20
2023-09-18T11:29:39.502Z,2.20
2023-09-18T11:32:11.150Z,2.77
2023-09-18T11:34:45.957Z,2.37
2023-09-18T11:37:25.300Z,2.30
2023-09-18T11:39:56.846Z,2.07
2023-09-18T11:42:28.728Z,2.33
2023-09-18T11:44:58.301Z,2.10
2023-09-18T11:47:37.445Z,2.50
2023-09-18T11:50:09.766Z,2.20
2023-09-18T11:52:38.853Z,1.90
2023-09-18T11:55:11.062Z,1.70
2023-09-18T12:00:29.528Z,2.10
2023-09-18T12:02:57.098Z,2.00
2023-09-18T12:05:27.723Z,1.90
2023-09-18T12:07:56.929Z,1.80
2023-09-18T12:10:30.184Z,1.87
2023-09-18T12:12:57.988Z,2.33
2023-09-18T12:15:25.905Z,2.00
2023-09-18T12:17:57.962Z,1.90
2023-09-18T12:20:25.538Z,2.20
2023-09-18T12:22:56.046Z,2.57
2023-09-18T12:25:26.911Z,2.40
2023-09-18T12:27:58.526Z,2.10
2023-09-18T12:30:26.701Z,2.10
2023-09-18T12:33:06.555Z,1.90
2023-09-18T12:35:34.833Z,2.10
2023-09-18T12:38:06.342Z,2.00
2023-09-18T12:40:36.606Z,2.00
2023-09-18T12:43:04.855Z,1.73
2023-09-18T12:45:32.738Z,1.90
2023-09-18T12:48:03.859Z,1.90
2023-09-18T12:50:32.528Z,1.83
2023-09-18T12:53:15.572Z,2.07
2023-09-18T12:55:43.979Z,1.90
2023-09-18T12:58:15.368Z,1.60
2023-09-18T13:00:52.850Z,2.30
2023-09-18T13:03:21.601Z,1.90
2023-09-18T13:05:56.194Z,2.00
2023-09-18T13:08:26.282Z,2.00
2023-09-18T13:10:56.941Z,1.70
2023-09-18T13:13:26.926Z,1.90
2023-09-18T13:16:01.051Z,2.10
2023-09-18T13:18:29.321Z,1.70
2023-09-18T13:20:58.321Z,1.60
2023-09-18T13:23:36.193Z,2.10
2023-09-18T13:26:06.455Z,1.80
2023-09-18T13:28:37.992Z,1.70
2023-09-18T13:31:06.616Z,1.87
2023-09-18T13:33:40.286Z,1.77
2023-09-18T13:36:08.301Z,2.00
2023-09-18T13:38:35.752Z,1.77
2023-09-18T13:41:06.392Z,1.80
2023-09-18T13:43:38.578Z,1.80
2023-09-18T13:46:06.620Z,1.70
2023-09-18T13:48:34.602Z,1.77
2023-09-18T13:51:04.892Z,1.83
2023-09-18T13:53:33.314Z,1.83
2023-09-18T13:56:03.959Z,1.90
2023-09-18T13:58:31.390Z,2.10
2023-09-18T14:00:59.099Z,1.60
2023-09-18T14:03:27.302Z,1.67
2023-09-18T14:05:54.799Z,1.73
2023-09-18T14:08:23.051Z,1.70
2023-09-18T14:10:50.668Z,1.90
2023-09-18T14:13:21.804Z,1.80
2023-09-18T14:15:52.336Z,1.67
2023-09-18T14:18:23.549Z,1.70
2023-09-18T14:20:54.315Z,2.17
2023-09-18T14:23:22.681Z,1.60
2023-09-18T14:25:55.537Z,1.80
2023-09-18T14:28:33.119Z,1.67
2023-09-18T14:31:04.034Z,1.50
2023-09-18T14:33:32.095Z,1.47
2023-09-18T14:35:59.652Z,1.80
2023-09-18T14:38:27.048Z,1.80
2023-09-18T14:40:54.706Z,1.37
2023-09-18T14:43:26.417Z,1.90
2023-09-18T14:45:57.448Z,1.77
2023-09-18T14:48:25.519Z,1.67
2023-09-18T14:51:00.681Z,1.77
2023-09-18T14:53:28.489Z,1.63
2023-09-18T14:55:56.531Z,1.70
2023-09-18T14:58:32.784Z,1.80
2023-09-18T15:01:01.264Z,1.77
2023-09-18T15:03:29.064Z,1.70
2023-09-18T15:06:03.431Z,5.73
2023-09-18T15:08:31.109Z,3.10
2023-09-18T15:11:00.950Z,2.87
2023-09-18T15:13:29.000Z,2.27
2023-09-18T15:16:00.590Z,1.70
2023-09-18T15:18:34.241Z,1.70
2023-09-18T15:21:13.384Z,1.67
2023-09-18T15:23:41.774Z,1.60
2023-09-18T15:26:10.136Z,1.77
2023-09-18T15:28:38.673Z,1.73
2023-09-18T15:31:06.406Z,1.70
2023-09-18T15:33:39.026Z,1.60
2023-09-18T15:36:07.576Z,1.90
2023-09-18T15:38:35.938Z,1.77
2023-09-18T15:43:48.049Z,1.80
2023-09-18T15:46:16.574Z,1.80
2023-09-18T15:48:43.941Z,1.60
2023-09-18T15:51:13.984Z,1.80
2023-09-18T15:53:42.796Z,1.90
2023-09-18T15:56:10.310Z,3.30
2023-09-18T15:58:38.222Z,1.77
2023-09-18T16:01:13.870Z,2.10
2023-09-18T16:03:48.906Z,1.73
2023-09-18T16:06:22.290Z,1.73
2023-09-18T16:08:52.553Z,1.73
2023-09-18T16:11:19.803Z,1.70
2023-09-18T16:13:47.063Z,1.90
2023-09-18T16:16:14.902Z,2.20
2023-09-18T16:18:42.414Z,2.03
2023-09-18T16:21:10.144Z,1.77
2023-09-18T16:23:37.696Z,1.70
2023-09-18T16:26:06.269Z,2.10
2023-09-18T16:28:33.849Z,1.80
2023-09-18T16:31:08.837Z,2.10
2023-09-18T16:33:38.204Z,1.63
2023-09-18T16:36:06.174Z,1.60
2023-09-18T16:38:33.695Z,1.63
2023-09-18T16:41:01.543Z,1.93
2023-09-18T16:43:36.270Z,1.73
2023-09-18T16:46:07.063Z,1.73
2023-09-18T16:48:36.218Z,1.87
2023-09-18T16:51:06.148Z,1.80
2023-09-18T16:53:40.669Z,1.40
2023-09-18T16:56:08.483Z,1.63
2023-09-18T16:58:39.756Z,1.30
2023-09-18T17:01:31.869Z,2.23
2023-09-18T17:04:06.234Z,1.40
2023-09-18T17:08:57.699Z,1.20
2023-09-18T17:11:24.094Z,1.20
2023-09-18T17:14:23.347Z,1.60
2023-09-18T17:17:00.449Z,1.57
2023-09-18T17:19:47.636Z,1.60
2023-09-18T17:22:36.684Z,1.70
2023-09-18T17:33:35.735Z,1.60
2023-09-18T17:40:05.400Z,1.53
2023-09-18T17:50:05.724Z,1.60
2023-09-18T17:52:45.146Z,2.90
2023-09-18T17:59:33.149Z,1.93
2023-09-18T18:02:23.149Z,1.87
2023-09-18T18:05:08.255Z,1.70
2023-09-18T18:07:43.411Z,1.90
2023-09-18T18:10:24.441Z,2.10
2023-09-18T18:12:55.841Z,2.20
2023-09-18T18:15:26.860Z,2.30
2023-09-18T18:18:19.430Z,2.50
2023-09-18T18:20:58.345Z,2.77
2023-09-18T18:23:38.091Z,2.40
2023-09-18T18:26:21.812Z,2.40
2023-09-18T18:29:39.605Z,2.90
2023-09-18T18:36:57.168Z,2.90
2023-09-18T18:39:33.631Z,2.90
2023-09-18T18:42:12.431Z,2.77
2023-09-18T18:44:48.791Z,2.60
2023-09-18T18:47:49.577Z,2.70
2023-09-18T18:50:18.222Z,2.70
2023-09-18T18:52:47.492Z,2.70
2023-09-18T18:55:15.733Z,2.60
2023-09-18T18:57:44.100Z,2.30
2023-09-18T19:00:13.414Z,2.70
2023-09-18T19:02:41.622Z,2.37
2023-09-18T19:05:11.243Z,2.23
2023-09-18T19:07:40.911Z,2.60
2023-09-18T19:10:09.582Z,2.33
2023-09-18T19:12:42.098Z,2.37
2023-09-18T19:15:11.187Z,2.07
2023-09-18T19:17:38.746Z,2.30
2023-09-18T19:20:09.433Z,2.00
2023-09-18T19:23:39.333Z,2.27
2023-09-18T19:26:46.998Z,3.10
2023-09-18T19:29:17.628Z,2.23
2023-09-18T19:31:46.983Z,2.10
2023-09-18T19:34:19.136Z,2.03
2023-09-18T19:36:58.750Z,2.43
2023-09-18T19:40:32.786Z,2.13
2023-09-18T19:43:05.023Z,2.00
2023-09-18T19:45:37.072Z,2.23
2023-09-18T19:48:06.327Z,2.20
2023-09-18T19:50:34.499Z,2.00
2023-09-18T19:53:04.006Z,2.40
2023-09-18T19:55:31.606Z,2.50
2023-09-18T19:58:01.929Z,2.13
2023-09-18T20:00:31.132Z,2.23
2023-09-18T20:02:59.058Z,2.20
2023-09-18T20:05:30.287Z,2.47
2023-09-18T20:07:58.433Z,2.40
2023-09-18T20:10:30.952Z,2.20
2023-09-18T20:12:58.604Z,2.20
2023-09-18T20:15:26.356Z,1.80
2023-09-18T20:17:54.612Z,2.07
2023-09-18T20:20:22.521Z,2.10
2023-09-18T20:22:53.095Z,2.27
2023-09-18T20:25:21.269Z,2.07
2023-09-18T20:27:48.938Z,2.10
2023-09-18T20:30:17.283Z,2.30
2023-09-18T20:32:51.970Z,2.20
2023-09-18T20:35:22.957Z,2.17
2023-09-18T20:37:50.381Z,2.13
2023-09-18T20:40:18.234Z,2.10
2023-09-18T20:42:48.705Z,2.00
2023-09-18T20:45:16.322Z,2.27
2023-09-18T20:47:45.393Z,2.03
2023-09-18T20:50:12.927Z,2.30
2023-09-18T20:52:40.513Z,2.20
2023-09-18T20:55:12.511Z,1.90
2023-09-18T20:57:40.456Z,1.97
2023-09-18T21:00:15.089Z,2.23
2023-09-18T21:03:29.798Z,2.03
2023-09-18T21:05:57.575Z,2.20
2023-09-18T21:08:25.351Z,2.00
2023-09-18T21:10:53.432Z,2.37
2023-09-18T21:13:21.042Z,2.07
2023-09-18T21:15:49.196Z,2.00
2023-09-18T21:18:16.813Z,2.37
2023-09-18T21:20:44.526Z,2.47
2023-09-18T21:23:11.998Z,2.20
2023-09-18T21:25:40.905Z,2.13
2023-09-18T21:28:12.138Z,2.10
2023-09-18T21:30:39.886Z,2.30
2023-09-18T21:33:07.193Z,2.20
2023-09-18T21:35:38.011Z,2.37
2023-09-18T21:38:06.428Z,2.30
2023-09-18T21:40:34.720Z,2.40
2023-09-18T21:43:03.147Z,2.40
2023-09-18T21:45:30.866Z,2.07
2023-09-18T21:47:58.678Z,2.17
2023-09-18T21:50:28.666Z,2.00
2023-09-18T21:52:56.843Z,2.47
2023-09-18T21:55:25.090Z,2.20
2023-09-18T21:57:52.419Z,2.43
2023-09-18T22:00:24.052Z,2.40
2023-09-18T22:02:55.030Z,2.30
2023-09-18T22:05:24.293Z,2.90
2023-09-18T22:07:52.088Z,2.67
2023-09-18T22:10:19.433Z,2.63
2023-09-18T22:12:49.297Z,2.50
2023-09-18T22:15:16.816Z,2.40
2023-09-18T22:17:44.274Z,2.60
2023-09-18T22:20:12.386Z,2.70
2023-09-18T22:22:41.177Z,2.57
2023-09-18T22:25:09.014Z,2.20
2023-09-18T22:27:36.429Z,2.70
2023-09-18T22:30:04.137Z,2.90
2023-09-18T22:32:31.584Z,2.70
2023-09-18T22:34:59.049Z,2.60
2023-09-18T22:37:26.533Z,2.80
2023-09-18T22:40:12.451Z,2.57
2023-09-18T22:43:39.638Z,2.90
2023-09-18T22:47:03.323Z,2.67
2023-09-18T22:50:27.086Z,2.63
2023-09-18T22:52:54.212Z,2.47
2023-09-18T22:55:22.568Z,2.73
2023-09-18T22:58:00.731Z,3.00
2023-09-18T23:00:32.698Z,2.27
2023-09-18T23:03:05.609Z,2.67
2023-09-18T23:05:37.252Z,2.77
2023-09-18T23:08:09.278Z,2.43
2023-09-18T23:10:38.529Z,2.60
2023-09-18T23:13:06.636Z,2.40
2023-09-18T23:15:38.910Z,3.00
2023-09-18T23:18:10.380Z,2.70
2023-09-18T23:20:38.497Z,2.40
2023-09-18T23:23:08.933Z,2.83
2023-09-18T23:25:38.971Z,2.37
2023-09-18T23:28:09.271Z,2.40
2023-09-18T23:30:38.397Z,2.33
2023-09-18T23:33:11.944Z,2.33
2023-09-18T23:35:39.803Z,2.47
2023-09-18T23:38:11.391Z,2.60
2023-09-18T23:40:41.131Z,2.50
2023-09-18T23:43:10.834Z,2.80
2023-09-18T23:45:45.985Z,2.77
2023-09-18T23:48:19.707Z,2.70
2023-09-18T23:50:52.881Z,2.27
2023-09-18T23:53:26.461Z,2.63
2023-09-18T23:55:54.475Z,2.43
2023-09-18T23:58:22.026Z,2.87
